Decoded Metar for LFLB (CHAMBERY in FRANCE) (IATA:CMF) | Meteo·Mobile Aviation Weather
aviador You're here:

LFLB Decoded Metar

CHAMBERY in FRANCE
Report Time2019-10-19 21:30:00
UTC Time2019-10-19 21:53:50
Flight Rules mvfr MVFR
Wind150° at 02 kt
W.Decomp.*RWY 18: 1.7 kt HW 1 kt LCW
Visibility5000 m
Phenomena:Mist
Clouds:N/A
Expected CloudBase > 400 ft AGL from Temp-Dew spread
CeilingNone
Temp14°C (ISA +1)
Dew Point13°C (94% RH)
QNH1008 hPa
Density Alt1,224 ft
Elevation784 ft
Report Wrong Elevation
Raw Report
LFLB 192130Z AUTO 15002KT 5000 BR NSC 14/13 Q1008=

Extra information for LFLB:More info

Metar Taf Metar & Taf Last 4 Metars F.Rules Stats Wind Profile Meteogram Temp Stats Airport Information Weather charts Add Link Nearby VenuesMetar ALERT Operation Metar Decoded Social comments